Time;durP1;ratioP1;P1;durP2;ratioP2;P2;SDS_P1;SDS_P2;PMS_P1;PMS_P2;Temp;Humidity;BMP_temperature;BMP_pressure;BME280_temperature;BME280_humidity;BME280_pressure;Samples;Min_cycle;Max_cycle;Signal;HPM_P1;HPM_P2
2023/01/05 00:02:03;;;;;;;;;;;;;;;-144.99;93.62;52537.78;5028603;28;20602;-73
2023/01/05 00:04:29;;;;;;;;;;;;;;;-144.99;92.16;52545.94;5044072;28;19997;-73
2023/01/05 00:06:56;;;;;;;;;;;;;;;-144.99;92.12;52541.84;5029135;28;19989;-73
2023/01/05 00:09:22;;;;;;;;;;;;;;;-144.99;92.07;52533.69;5027636;28;20412;-74
2023/01/05 00:22:48;;;;;;;;;;;;;;;-144.99;91.53;52578.53;5040611;28;19952;-75
2023/01/05 00:25:16;;;;;;;;;;;;;;;-144.99;92.66;52533.69;5054611;28;19994;-75
2023/01/05 00:27:44;;;;;;;;;;;;;;;-144.99;92.19;52545.94;5048840;28;20111;-73
2023/01/05 00:30:12;;;;;;;;;;;;;;;-144.99;91.58;52564.28;5047278;28;20316;-74
2023/01/05 00:32:38;;;;;;;;;;;;;;;-144.99;92.15;52517.41;5046589;28;20204;-72
2023/01/05 00:35:05;;;;;;;;;;;;;;;-144.99;91.85;52545.94;5057171;28;20019;-73
2023/01/05 00:37:33;;;;;;;;;;;;;;;-144.99;92.60;52529.63;5038858;28;20068;-72
2023/01/05 00:39:59;;;;;;;;;;;;;;;-144.99;91.95;52603.00;5027000;28;19999;-72
2023/01/05 00:42:26;;;;;;;;;;;;;;;-144.99;91.63;52554.09;5043140;28;20012;-73
2023/01/05 00:44:54;;;;;;;;;;;;;;;-144.99;92.37;52525.56;5036244;28;19984;-73
2023/01/05 00:47:21;;;;;;;;;;;;;;;-144.99;92.46;52554.09;5033612;28;20037;-72
2023/01/05 00:49:47;;;;;;;;;;;;;;;-144.99;92.29;52533.69;5027741;28;20433;-72
2023/01/05 00:52:14;;;;;;;;;;;;;;;-144.99;92.47;52570.38;5038445;28;19963;-72
2023/01/05 00:54:40;;;;;;;;;;;;;;;-144.99;92.27;52558.16;5045221;28;19955;-74
2023/01/05 00:57:07;;;;;;;;;;;;;;;-144.99;92.26;52578.53;5047992;28;19934;-74
2023/01/05 00:59:33;;;;;;;;;;;;;;;-144.99;91.67;52554.09;5055740;28;20606;-72
2023/01/05 01:02:01;;;;;;;;;;;;;;;-144.99;91.24;52576.50;5027027;28;19951;-73
2023/01/05 01:04:30;;;;;;;;;;;;;;;-144.99;91.87;52541.84;5045046;28;19942;-75
2023/01/05 01:06:56;;;;;;;;;;;;;;;-144.99;90.69;52554.09;5036615;28;19975;-75
2023/01/05 01:09:23;;;;;;;;;;;;;;;-144.99;90.63;52558.16;5046798;28;20034;-73
2023/01/05 01:11:49;;;;;;;;;;;;;;;-144.99;89.78;52554.09;5045365;28;20013;-75
2023/01/05 01:14:16;;;;;;;;;;;;;;;-144.99;89.69;52543.91;5049728;28;20107;-73
2023/01/05 01:16:42;;;;;;;;;;;;;;;-144.99;88.69;52517.41;5043954;28;20044;-73
2023/01/05 01:19:13;;;;;;;;;;;;;;;-144.99;89.03;52562.25;5045340;28;19989;-74
2023/01/05 01:21:39;;;;;;;;;;;;;;;-144.99;88.71;52590.78;5047493;28;19947;-76
2023/01/05 01:24:06;;;;;;;;;;;;;;;-144.99;88.69;52541.84;5056968;28;19987;-75
2023/01/05 01:26:33;;;;;;;;;;;;;;;-144.99;87.39;52552.03;5053238;28;19988;-72
2023/01/05 01:28:59;;;;;;;;;;;;;;;-144.99;86.25;52550.00;5046262;28;20576;-75
2023/01/05 01:31:26;;;;;;;;;;;;;;;-144.99;86.05;52533.69;5041505;28;19975;-75
2023/01/05 01:33:52;;;;;;;;;;;;;;;-144.99;87.05;52578.53;5056679;28;19960;-74
2023/01/05 01:36:20;;;;;;;;;;;;;;;-144.99;87.20;52572.44;5056570;28;19999;-78
2023/01/05 01:38:46;;;;;;;;;;;;;;;-144.99;86.60;52537.78;5057131;28;20053;-73
2023/01/05 01:41:13;;;;;;;;;;;;;;;-144.99;87.77;52558.16;5036008;28;20314;-75
2023/01/05 01:43:42;;;;;;;;;;;;;;;-144.99;89.25;52570.38;5028539;28;19938;-74
2023/01/05 01:46:08;;;;;;;;;;;;;;;-144.99;89.96;52521.47;5056484;28;20004;-75
2023/01/05 01:48:35;;;;;;;;;;;;;;;-144.99;89.98;52560.19;5030424;28;20012;-73
2023/01/05 01:51:03;;;;;;;;;;;;;;;-144.99;90.00;52566.31;5026155;28;20391;-73
2023/01/05 01:53:34;;;;;;;;;;;;;;;-144.99;90.79;52566.31;5035567;28;19984;-73
2023/01/05 01:56:02;;;;;;;;;;;;;;;-144.99;90.73;52556.13;5053333;28;19976;-73
2023/01/05 01:58:30;;;;;;;;;;;;;;;-144.99;89.74;52537.78;5056099;28;20522;-74
2023/01/05 02:00:59;;;;;;;;;;;;;;;-144.99;89.48;52541.84;5031030;28;19945;-72
2023/01/05 02:03:25;;;;;;;;;;;;;;;-144.99;88.72;52545.94;5033770;28;19958;-75
2023/01/05 02:05:53;;;;;;;;;;;;;;;-144.99;88.79;52578.53;5036699;28;20023;-72
2023/01/05 02:08:24;;;;;;;;;;;;;;;-144.99;88.54;52550.00;5034090;28;20058;-72
2023/01/05 02:10:57;;;;;;;;;;;;;;;-144.99;88.83;52570.38;5045570;28;19954;-74
2023/01/05 02:13:31;;;;;;;;;;;;;;;-144.99;89.23;52525.56;5044406;28;19964;-73
2023/01/05 02:16:01;;;;;;;;;;;;;;;-144.99;88.81;52537.78;5068244;28;19927;-77
2023/01/05 02:18:36;;;;;;;;;;;;;;;-144.99;88.76;52515.34;5046696;28;20596;-72
2023/01/05 02:21:12;;;;;;;;;;;;;;;-144.99;88.54;52574.47;5026198;28;20354;-72
2023/01/05 02:23:56;;;;;;;;;;;;;;;-144.99;88.53;52541.84;5054575;28;19946;-72
2023/01/05 02:26:47;;;;;;;;;;;;;;;-144.99;87.54;52568.34;5044374;28;20053;-74
2023/01/05 02:29:31;;;;;;;;;;;;;;;-144.99;85.29;52564.28;5036004;28;20107;-72
2023/01/05 02:32:03;;;;;;;;;;;;;;;-144.99;86.50;52558.16;5051618;28;20867;-72
2023/01/05 02:34:34;;;;;;;;;;;;;;;-144.99;86.99;52588.75;5040806;28;19961;-73
2023/01/05 02:37:06;;;;;;;;;;;;;;;-144.99;86.06;52554.09;5043982;28;20068;-73
2023/01/05 02:39:35;;;;;;;;;;;;;;;-144.99;86.70;52574.47;5025292;28;20043;-73
2023/01/05 02:42:04;;;;;;;;;;;;;;;-144.99;85.98;52556.13;5024880;28;20034;-71
2023/01/05 02:44:31;;;;;;;;;;;;;;;-144.99;86.37;52558.16;5041552;28;20430;-72
2023/01/05 02:47:03;;;;;;;;;;;;;;;-144.99;86.16;52562.25;5035941;28;19988;-74
2023/01/05 02:49:31;;;;;;;;;;;;;;;-144.99;85.80;52554.09;5089387;22;20005;-77
2023/01/05 02:51:59;;;;;;;;;;;;;;;-144.99;85.74;52590.78;5091637;28;19949;-78
2023/01/05 02:54:29;;;;;;;;;;;;;;;-144.99;85.30;52574.47;5089010;28;19946;-79
2023/01/05 02:56:59;;;;;;;;;;;;;;;-144.99;85.42;52529.63;5099540;28;19954;-76
2023/01/05 02:59:28;;;;;;;;;;;;;;;-144.99;85.44;52568.34;5108798;28;20044;-73
2023/01/05 03:01:57;;;;;;;;;;;;;;;-144.99;85.73;52537.78;5111246;28;20401;-79
2023/01/05 03:04:28;;;;;;;;;;;;;;;-144.99;85.45;52566.31;5095734;28;20017;-76
2023/01/05 03:06:56;;;;;;;;;;;;;;;-144.99;85.57;52596.88;5102271;28;19940;-78
2023/01/05 03:09:25;;;;;;;;;;;;;;;-144.99;85.79;52574.47;5113771;28;19948;-78
2023/01/05 03:14:41;;;;;;;;;;;;;;;-144.99;85.08;52572.44;5096120;28;19971;-78
2023/01/05 03:17:10;;;;;;;;;;;;;;;-144.99;85.02;52550.00;5094934;28;19946;-76
2023/01/05 03:19:38;;;;;;;;;;;;;;;-144.99;85.56;52578.53;5085153;28;19950;-78
2023/01/05 03:35:56;;;;;;;;;;;;;;;-144.99;87.70;52558.16;5091727;28;20008;-77
2023/01/05 03:38:25;;;;;;;;;;;;;;;-144.99;88.23;52578.53;5095153;28;19944;-78
2023/01/05 03:40:54;;;;;;;;;;;;;;;-144.99;88.95;52545.94;5095461;28;19933;-75
2023/01/05 03:43:21;;;;;;;;;;;;;;;-144.99;91.39;52570.38;5093018;28;20197;-77
2023/01/05 03:45:51;;;;;;;;;;;;;;;-144.99;91.25;52554.09;5101463;28;19953;-79
2023/01/05 03:48:19;;;;;;;;;;;;;;;-144.99;90.42;52588.75;5094998;28;19974;-79
2023/01/05 03:50:46;;;;;;;;;;;;;;;-144.99;89.84;52554.09;5095070;28;19931;-78
2023/01/05 03:53:14;;;;;;;;;;;;;;;-144.99;89.39;52623.38;5100094;28;19960;-80
2023/01/05 03:55:41;;;;;;;;;;;;;;;-144.99;90.23;52564.28;5094946;28;19939;-80
2023/01/05 03:58:07;;;;;;;;;;;;;;;-144.99;90.49;52578.53;5094583;28;20003;-78
2023/01/05 04:00:34;;;;;;;;;;;;;;;-144.99;90.82;52558.16;5104357;28;19934;-80
2023/01/05 04:03:01;;;;;;;;;;;;;;;-144.99;90.37;52570.38;5105255;28;19970;-80
2023/01/05 04:05:27;;;;;;;;;;;;;;;-144.99;90.55;52598.94;5084314;28;20017;-75
2023/01/05 04:07:54;;;;;;;;;;;;;;;-144.99;90.18;52554.09;5081933;28;19959;-73
2023/01/05 04:10:22;;;;;;;;;;;;;;;-144.99;89.54;52584.66;5094490;28;19945;-77
2023/01/05 04:12:48;;;;;;;;;;;;;;;-144.99;90.18;52576.50;5103025;28;20202;-75
2023/01/05 04:15:15;;;;;;;;;;;;;;;-144.99;90.91;52550.00;5081119;28;19942;-77
2023/01/05 04:17:41;;;;;;;;;;;;;;;-144.99;89.96;52570.38;5080484;28;19951;-77
2023/01/05 04:20:08;;;;;;;;;;;;;;;-144.99;89.96;52578.53;5083252;28;20409;-73
2023/01/05 04:22:34;;;;;;;;;;;;;;;-144.99;90.82;52558.16;5076716;28;19988;-72
2023/01/05 04:25:01;;;;;;;;;;;;;;;-144.99;90.61;52578.53;5069558;28;19975;-76
2023/01/05 04:27:29;;;;;;;;;;;;;;;-144.99;90.65;52560.19;5070731;28;19970;-74
2023/01/05 04:29:55;;;;;;;;;;;;;;;-144.99;90.05;52582.63;5067261;28;20005;-76
2023/01/05 04:32:22;;;;;;;;;;;;;;;-144.99;90.91;52558.16;5074257;28;20033;-75
2023/01/05 04:34:48;;;;;;;;;;;;;;;-144.99;90.43;52570.38;5067985;28;20402;-73
2023/01/05 04:37:15;;;;;;;;;;;;;;;-144.99;90.16;52590.78;5061467;28;20001;-74
2023/01/05 04:39:41;;;;;;;;;;;;;;;-144.99;90.81;52570.38;5067728;28;20000;-76
2023/01/05 04:42:07;;;;;;;;;;;;;;;-144.99;90.89;52574.47;5066266;28;20031;-74
2023/01/05 04:44:35;;;;;;;;;;;;;;;-144.99;90.66;52568.34;5066509;28;20025;-73
2023/01/05 04:47:02;;;;;;;;;;;;;;;-144.99;91.07;52603.00;5068883;28;20309;-72
2023/01/05 04:49:28;;;;;;;;;;;;;;;-144.99;92.08;52554.09;5070275;28;19955;-73
2023/01/05 04:51:55;;;;;;;;;;;;;;;-144.99;91.86;52566.31;5087533;28;19964;-78
2023/01/05 04:54:21;;;;;;;;;;;;;;;-144.99;93.09;52598.94;5081440;28;20477;-72
2023/01/05 04:56:48;;;;;;;;;;;;;;;-144.99;92.80;52541.84;5073197;28;19935;-76
2023/01/05 04:59:14;;;;;;;;;;;;;;;-144.99;92.52;52570.38;5079073;28;20258;-78
2023/01/05 05:01:42;;;;;;;;;;;;;;;-144.99;92.40;52578.53;5085950;28;20388;-72
2023/01/05 05:04:08;;;;;;;;;;;;;;;-144.99;92.01;52582.63;5074119;28;20099;-71
2023/01/05 05:06:35;;;;;;;;;;;;;;;-144.99;92.42;52566.31;5068769;28;19984;-73
2023/01/05 05:09:01;;;;;;;;;;;;;;;-144.99;92.75;52574.47;5067052;28;20412;-75
2023/01/05 05:11:28;;;;;;;;;;;;;;;-144.99;94.40;52564.28;5070795;28;20379;-75
2023/01/05 05:13:54;;;;;;;;;;;;;;;-144.99;94.31;52556.13;5065806;28;20033;-76
2023/01/05 05:16:21;;;;;;;;;;;;;;;-144.99;93.66;52578.53;5067234;28;19944;-73
2023/01/05 05:18:48;;;;;;;;;;;;;;;-144.99;94.36;52568.34;5067773;28;20464;-72
2023/01/05 05:21:15;;;;;;;;;;;;;;;-144.99;94.53;52586.69;5065308;28;20305;-78
2023/01/05 05:23:42;;;;;;;;;;;;;;;-144.99;93.78;52533.69;5066776;28;19942;-76
2023/01/05 05:26:08;;;;;;;;;;;;;;;-144.99;93.14;52592.81;5066139;28;19980;-75
2023/01/05 05:28:34;;;;;;;;;;;;;;;-144.99;92.65;52574.47;5059721;28;20515;-76
2023/01/05 05:31:01;;;;;;;;;;;;;;;-144.99;93.10;52533.69;5065076;28;20334;-76
2023/01/05 05:33:27;;;;;;;;;;;;;;;-144.99;92.61;52533.69;5068536;28;20033;-78
2023/01/05 05:35:55;;;;;;;;;;;;;;;-144.99;92.73;52541.84;5060508;28;20027;-74
2023/01/05 05:38:22;;;;;;;;;;;;;;;-144.99;92.68;52554.09;5085512;28;19974;-81
2023/01/05 05:40:49;;;;;;;;;;;;;;;-144.99;92.57;52566.31;5074276;28;19938;-78
2023/01/05 05:43:15;;;;;;;;;;;;;;;-144.99;92.99;52566.31;5064215;28;19982;-76
2023/01/05 05:45:42;;;;;;;;;;;;;;;-144.99;92.88;52558.16;5065984;28;19970;-72
2023/01/05 05:48:09;;;;;;;;;;;;;;;-144.99;94.68;52537.78;5067414;28;20011;-74
2023/01/05 05:50:35;;;;;;;;;;;;;;;-144.99;93.59;52570.38;5066372;28;19941;-74
2023/01/05 05:53:03;;;;;;;;;;;;;;;-144.99;93.17;52566.31;5063778;28;19943;-71
2023/01/05 05:55:29;;;;;;;;;;;;;;;-144.99;93.98;52586.69;5066206;28;20022;-75
2023/01/05 05:57:56;;;;;;;;;;;;;;;-144.99;93.06;52566.31;5067092;28;19986;-74
2023/01/05 06:00:23;;;;;;;;;;;;;;;-144.99;92.82;52513.31;5065540;28;20362;-73
2023/01/05 06:02:49;;;;;;;;;;;;;;;-144.99;92.28;52570.38;5062842;28;20179;-72
2023/01/05 06:05:15;;;;;;;;;;;;;;;-144.99;92.05;52566.31;5066061;28;20500;-73
2023/01/05 06:07:42;;;;;;;;;;;;;;;-144.99;93.38;52554.09;5069561;28;20019;-74
2023/01/05 06:10:10;;;;;;;;;;;;;;;-144.99;93.25;52609.13;5071733;28;20475;-71
2023/01/05 06:12:37;;;;;;;;;;;;;;;-144.99;91.92;52598.94;5062499;28;20040;-71
2023/01/05 06:15:04;;;;;;;;;;;;;;;-144.99;91.33;52570.38;5075618;28;20013;-79
2023/01/05 06:17:30;;;;;;;;;;;;;;;-144.99;90.63;52578.53;5080106;28;19981;-76
2023/01/05 06:19:56;;;;;;;;;;;;;;;-144.99;90.28;52578.53;5064781;28;20439;-76
2023/01/05 06:22:23;;;;;;;;;;;;;;;-144.99;90.16;52564.28;5065418;28;19985;-77
2023/01/05 06:24:49;;;;;;;;;;;;;;;-144.99;90.35;52582.63;5064955;28;19937;-77
2023/01/05 06:27:17;;;;;;;;;;;;;;;-144.99;89.86;52525.56;5064909;28;19977;-76
2023/01/05 06:29:44;;;;;;;;;;;;;;;-144.99;89.96;52525.56;5060458;28;20008;-77
2023/01/05 06:32:10;;;;;;;;;;;;;;;-144.99;90.15;52556.13;4359737;28;10000729;-80
2023/01/05 06:34:37;;;;;;;;;;;;;;;-144.99;90.25;52570.38;5063380;28;20430;-79
2023/01/05 06:37:05;;;;;;;;;;;;;;;-144.99;90.08;52560.19;5074868;28;19940;-83
2023/01/05 06:39:31;;;;;;;;;;;;;;;-144.99;90.03;52543.91;5068245;28;19965;-79
2023/01/05 06:41:58;;;;;;;;;;;;;;;-144.99;90.36;52584.66;5062580;28;20470;-76
2023/01/05 06:44:26;;;;;;;;;;;;;;;-144.99;89.89;52545.94;5058760;28;20409;-77
2023/01/05 06:46:52;;;;;;;;;;;;;;;-144.99;89.44;52590.78;5065565;28;19986;-84
2023/01/05 06:49:19;;;;;;;;;;;;;;;-144.99;89.16;52533.69;5064064;28;20059;-79
2023/01/05 06:51:45;;;;;;;;;;;;;;;-144.99;89.07;52541.84;5063405;28;20053;-79
2023/01/05 06:54:12;;;;;;;;;;;;;;;-144.99;88.85;52566.31;5062821;28;19956;-78
2023/01/05 06:56:38;;;;;;;;;;;;;;;-144.99;88.48;52558.16;5065148;28;19996;-78
2023/01/05 06:59:05;;;;;;;;;;;;;;;-144.99;87.23;52554.09;5063569;28;19998;-79
2023/01/05 07:01:33;;;;;;;;;;;;;;;-144.99;86.28;52570.38;5064983;28;19932;-83
2023/01/05 07:03:59;;;;;;;;;;;;;;;-144.99;86.02;52578.53;5064744;28;20456;-80
2023/01/05 07:06:26;;;;;;;;;;;;;;;-144.99;84.35;52560.19;5065393;28;20342;-79
2023/01/05 07:08:52;;;;;;;;;;;;;;;-144.99;84.48;52578.53;5065843;28;20052;-78
2023/01/05 07:11:19;;;;;;;;;;;;;;;-144.99;84.73;52562.25;5065801;28;20003;-78
2023/01/05 07:13:47;;;;;;;;;;;;;;;-144.99;84.58;52570.38;5065603;28;19944;-78
2023/01/05 07:16:13;;;;;;;;;;;;;;;-144.99;82.54;52562.25;5060606;28;19972;-77
2023/01/05 07:18:41;;;;;;;;;;;;;;;-144.99;81.47;52545.94;5065682;28;20083;-77
2023/01/05 07:21:07;;;;;;;;;;;;;;;-144.99;81.37;52533.69;5077709;28;20040;-79
2023/01/05 07:23:36;;;;;;;;;;;;;;;-144.99;83.47;52607.09;5065762;28;20020;-80
2023/01/05 07:26:03;;;;;;;;;;;;;;;-144.99;84.72;52554.09;5072025;28;19943;-82
2023/01/05 07:28:29;;;;;;;;;;;;;;;-144.99;83.31;52582.63;5070933;28;19962;-80
2023/01/05 07:30:56;;;;;;;;;;;;;;;-144.99;82.95;52558.16;5074007;28;19959;-79
2023/01/05 07:33:22;;;;;;;;;;;;;;;-144.99;81.53;52554.09;5066392;28;19935;-79
2023/01/05 07:35:50;;;;;;;;;;;;;;;-144.99;82.22;52594.84;5061328;28;20409;-78
2023/01/05 07:38:16;;;;;;;;;;;;;;;-144.99;82.38;52558.16;5063519;28;19958;-81
2023/01/05 07:40:43;;;;;;;;;;;;;;;-144.99;82.09;52545.94;5063090;28;19979;-78
2023/01/05 07:43:09;;;;;;;;;;;;;;;-144.99;83.64;52586.69;5063672;28;19998;-79
2023/01/05 07:45:36;;;;;;;;;;;;;;;-144.99;84.89;52582.63;5061865;28;19946;-80
2023/01/05 07:48:02;;;;;;;;;;;;;;;-144.99;85.11;52545.94;5064567;28;20006;-79
2023/01/05 07:50:29;;;;;;;;;;;;;;;-144.99;85.26;52566.31;5065275;28;20051;-80
2023/01/05 07:52:58;;;;;;;;;;;;;;;-144.99;85.13;52564.28;5065254;28;19951;-78
2023/01/05 07:55:24;;;;;;;;;;;;;;;-144.99;85.51;52550.00;5063088;28;20036;-79
2023/01/05 07:57:51;;;;;;;;;;;;;;;-144.99;86.11;52570.38;5067154;28;19993;-79
2023/01/05 08:00:17;;;;;;;;;;;;;;;-144.99;85.73;52603.00;4711534;28;9999885;-79
2023/01/05 08:02:44;;;;;;;;;;;;;;;-144.99;85.66;52590.78;5060632;28;20383;-76
2023/01/05 08:05:11;;;;;;;;;;;;;;;-144.99;84.73;52541.84;5064005;28;19950;-79
2023/01/05 08:07:37;;;;;;;;;;;;;;;-144.99;84.03;52564.28;5077154;28;19974;-80
2023/01/05 08:15:34;;;;;;;;;;;;;;;-144.99;86.96;52537.78;5068713;28;19997;-78
2023/01/05 08:18:00;;;;;;;;;;;;;;;-144.99;90.63;52545.94;5064803;28;20063;-78
2023/01/05 08:20:27;;;;;;;;;;;;;;;-144.99;91.42;52574.47;5077813;28;20006;-77
2023/01/05 08:22:54;;;;;;;;;;;;;;;-144.99;93.89;52603.00;5063756;28;19980;-78
2023/01/05 08:25:21;;;;;;;;;;;;;;;-144.99;94.59;52572.44;5069227;28;19977;-76
2023/01/05 08:27:48;;;;;;;;;;;;;;;-144.99;96.64;52566.31;5059961;28;20051;-76
2023/01/05 08:30:15;;;;;;;;;;;;;;;-144.99;97.79;52558.16;5061297;28;20061;-77
2023/01/05 08:32:41;;;;;;;;;;;;;;;-144.99;99.25;52574.47;5063524;28;19984;-77
2023/01/05 08:35:08;;;;;;;;;;;;;;;-144.99;100.00;52574.47;5062222;28;20128;-79
2023/01/05 08:37:35;;;;;;;;;;;;;;;-144.99;100.00;52545.94;5064162;28;19975;-77
2023/01/05 08:40:01;;;;;;;;;;;;;;;-144.99;99.78;52586.69;5063651;28;20035;-76
2023/01/05 08:42:29;;;;;;;;;;;;;;;-144.99;100.00;52541.84;5062575;28;19948;-77
2023/01/05 08:44:55;;;;;;;;;;;;;;;-144.99;98.40;52584.66;5067283;28;20010;-80
2023/01/05 08:47:22;;;;;;;;;;;;;;;-144.99;97.40;52578.53;5092179;28;19932;-80
2023/01/05 08:49:49;;;;;;;;;;;;;;;-144.99;97.53;52582.63;5098602;22;19995;-74
2023/01/05 08:52:16;;;;;;;;;;;;;;;-144.99;97.45;52525.56;5043034;28;20309;-74
2023/01/05 08:54:42;;;;;;;;;;;;;;;-144.99;97.60;52570.38;5049808;28;19970;-75
2023/01/05 08:57:09;;;;;;;;;;;;;;;-144.99;97.55;52566.31;5050714;28;19946;-73
2023/01/05 08:59:37;;;;;;;;;;;;;;;-144.99;99.03;52570.38;5033733;28;20068;-74
2023/01/05 09:02:03;;;;;;;;;;;;;;;-144.99;100.00;52566.31;5021418;28;19961;-75
2023/01/05 09:04:30;;;;;;;;;;;;;;;-144.99;100.00;52582.63;5015572;28;19999;-75
2023/01/05 09:06:56;;;;;;;;;;;;;;;-144.99;98.63;52578.53;5037762;28;20036;-74
2023/01/05 09:09:24;;;;;;;;;;;;;;;-144.99;99.30;52582.63;5010463;28;20654;-75
2023/01/05 09:11:50;;;;;;;;;;;;;;;-144.99;99.38;52556.13;5005614;28;20029;-74
2023/01/05 09:14:17;;;;;;;;;;;;;;;-144.99;98.87;52525.56;5026544;28;19949;-74
2023/01/05 09:16:45;;;;;;;;;;;;;;;-144.99;97.51;52523.50;5022024;28;19963;-73
2023/01/05 09:19:13;;;;;;;;;;;;;;;-144.99;95.40;52517.41;5025527;28;20017;-75
2023/01/05 09:21:40;;;;;;;;;;;;;;;-144.99;93.15;52541.84;5041666;28;20001;-75
2023/01/05 09:24:07;;;;;;;;;;;;;;;-144.99;90.75;52545.94;5035815;28;20010;-75
2023/01/05 09:26:34;;;;;;;;;;;;;;;-144.99;89.59;52539.81;5045394;28;20292;-72
2023/01/05 09:29:00;;;;;;;;;;;;;;;-144.99;89.20;52521.47;5025803;28;19992;-75
2023/01/05 09:31:27;;;;;;;;;;;;;;;-144.99;88.81;52533.69;5034671;28;20203;-74
2023/01/05 09:33:56;;;;;;;;;;;;;;;-144.99;89.16;52560.19;5034880;28;20350;-76
2023/01/05 09:36:23;;;;;;;;;;;;;;;-144.99;87.49;52533.69;5041976;28;19957;-74
2023/01/05 09:38:50;;;;;;;;;;;;;;;-144.99;86.75;52537.78;5006977;28;19964;-74
2023/01/05 09:41:20;;;;;;;;;;;;;;;-144.99;85.84;52513.31;5004490;28;19971;-75
2023/01/05 09:43:48;;;;;;;;;;;;;;;-144.99;82.44;52529.63;5003873;28;19950;-73
2023/01/05 09:46:16;;;;;;;;;;;;;;;-144.99;81.63;52533.69;5019846;28;19986;-73
2023/01/05 09:48:46;;;;;;;;;;;;;;;-144.99;79.94;52492.94;5031115;28;20019;-75
2023/01/05 09:51:13;;;;;;;;;;;;;;;-144.99;77.67;52525.56;5012635;28;20037;-75
2023/01/05 09:53:40;;;;;;;;;;;;;;;-144.99;76.47;52492.94;5023447;28;19939;-74
2023/01/05 09:56:15;;;;;;;;;;;;;;;-144.99;74.85;52517.41;5028805;28;19966;-74
2023/01/05 09:58:44;;;;;;;;;;;;;;;-144.99;74.38;52480.72;5035450;28;19978;-75
2023/01/05 10:01:13;;;;;;;;;;;;;;;-144.99;73.40;52472.56;5030005;28;19959;-75
2023/01/05 10:03:42;;;;;;;;;;;;;;;-144.99;71.88;52488.84;5033626;28;20444;-75
2023/01/05 10:06:12;;;;;;;;;;;;;;;-144.99;68.33;52466.44;5025954;28;20436;-75
2023/01/05 10:08:42;;;;;;;;;;;;;;;-144.99;66.57;52472.56;5034932;28;20047;-75
2023/01/05 10:13:59;;;;;;;;;;;;;;;-144.99;67.67;52468.47;5027496;28;19954;-74
2023/01/05 10:16:27;;;;;;;;;;;;;;;-144.99;68.04;52513.31;5030046;28;19964;-76
2023/01/05 10:18:53;;;;;;;;;;;;;;;-144.99;67.98;52554.09;5019370;28;19953;-76
2023/01/05 10:21:25;;;;;;;;;;;;;;;-144.99;68.64;52488.84;5025475;28;20588;-75
2023/01/05 10:24:09;;;;;;;;;;;;;;;-144.99;69.79;52492.94;5020831;28;20236;-76
2023/01/05 10:26:43;;;;;;;;;;;;;;;-144.99;71.56;52458.28;5025654;28;19939;-74
2023/01/05 10:29:10;;;;;;;;;;;;;;;-144.99;69.56;52513.31;5011266;28;19940;-75
2023/01/05 10:31:43;;;;;;;;;;;;;;;-144.99;68.25;52492.94;5015917;28;20339;-75
2023/01/05 10:34:15;;;;;;;;;;;;;;;-144.99;67.29;52501.09;5024801;28;19940;-75
2023/01/05 10:36:50;;;;;;;;;;;;;;;-144.99;67.46;52503.13;5020819;28;20034;-75
2023/01/05 10:39:24;;;;;;;;;;;;;;;-144.99;68.09;52468.47;5032116;28;20368;-75
2023/01/05 10:41:58;;;;;;;;;;;;;;;-144.99;68.11;52484.78;5034571;28;20374;-76
2023/01/05 10:44:39;;;;;;;;;;;;;;;-144.99;67.50;52494.97;5035498;28;19946;-76
2023/01/05 10:47:07;;;;;;;;;;;;;;;-144.99;67.80;52484.78;5039208;28;19941;-75
2023/01/05 10:49:34;;;;;;;;;;;;;;;-144.99;65.91;52468.47;5038383;28;19940;-74
2023/01/05 10:52:01;;;;;;;;;;;;;;;-144.99;64.19;52346.19;5037783;28;20433;-75
2023/01/05 10:54:35;;;;;;;;;;;;;;;-144.99;60.44;52393.06;5036324;28;19953;-76
2023/01/05 10:57:20;;;;;;;;;;;;;;;-144.99;57.44;52297.25;5054150;28;19974;-75
2023/01/05 10:59:54;;;;;;;;;;;;;;;-144.99;54.61;52346.19;5032888;28;19965;-74
2023/01/05 11:02:20;;;;;;;;;;;;;;;-144.99;54.23;52278.91;5031478;28;19950;-76
2023/01/05 11:04:48;;;;;;;;;;;;;;;-144.99;52.23;52219.81;5039105;28;20029;-74
2023/01/05 11:07:14;;;;;;;;;;;;;;;-144.99;51.21;52276.88;5049659;28;19987;-75
2023/01/05 11:09:44;;;;;;;;;;;;;;;-144.99;50.45;52232.03;5020545;28;19914;-76
2023/01/05 11:12:16;;;;;;;;;;;;;;;-144.99;49.47;52227.97;5021813;28;20001;-74
2023/01/05 11:14:44;;;;;;;;;;;;;;;-144.99;49.62;52244.28;5025273;28;20019;-76
2023/01/05 11:17:16;;;;;;;;;;;;;;;-144.99;50.56;52297.25;5029507;28;19971;-76
2023/01/05 11:19:45;;;;;;;;;;;;;;;-144.99;50.39;52333.94;5049325;28;19966;-76
2023/01/05 11:22:27;;;;;;;;;;;;;;;-144.99;49.76;52384.91;5048449;28;19929;-74
2023/01/05 11:25:12;;;;;;;;;;;;;;;-144.99;51.96;52423.63;5027017;28;19962;-74
2023/01/05 11:27:39;;;;;;;;;;;;;;;-144.99;53.72;52460.31;5016848;28;19980;-74
2023/01/05 11:30:17;;;;;;;;;;;;;;;-144.99;55.51;52464.41;5015227;28;20047;-75
2023/01/05 11:32:44;;;;;;;;;;;;;;;-144.99;57.95;52435.88;5031557;28;19975;-76
2023/01/05 11:35:17;;;;;;;;;;;;;;;-144.99;58.21;52346.19;5025712;28;19990;-74
2023/01/05 11:37:44;;;;;;;;;;;;;;;-144.99;55.53;52309.50;5024810;28;20448;-76
2023/01/05 11:40:15;;;;;;;;;;;;;;;-144.99;53.12;52372.69;5008765;28;20022;-75
2023/01/05 11:42:42;;;;;;;;;;;;;;;-144.99;51.23;52407.31;5018276;28;20022;-76
2023/01/05 11:45:17;;;;;;;;;;;;;;;-144.99;51.00;52378.78;5026954;28;20027;-74
2023/01/05 11:47:45;;;;;;;;;;;;;;;-144.99;51.92;52450.13;5030076;28;20223;-75
2023/01/05 11:50:17;;;;;;;;;;;;;;;-144.99;52.17;52384.91;5027006;28;20546;-75
2023/01/05 11:52:44;;;;;;;;;;;;;;;-144.99;53.73;52505.16;5024141;28;20011;-76
2023/01/05 11:55:34;;;;;;;;;;;;;;;-144.99;55.33;52519.44;5015166;28;20023;-77
2023/01/05 11:58:17;;;;;;;;;;;;;;;-144.99;58.45;52525.56;5005739;28;20019;-77
2023/01/05 12:00:53;;;;;;;;;;;;;;;-144.99;61.05;52517.41;5025951;28;19999;-74
2023/01/05 12:03:34;;;;;;;;;;;;;;;-144.99;63.10;52562.25;5034499;28;19987;-77
2023/01/05 12:06:06;;;;;;;;;;;;;;;-144.99;65.65;52541.84;5029701;28;20025;-77
2023/01/05 12:08:36;;;;;;;;;;;;;;;-144.99;66.73;52564.28;5021993;28;19925;-75
2023/01/05 12:11:07;;;;;;;;;;;;;;;-144.99;67.63;52537.78;5030218;28;19944;-73
2023/01/05 12:13:52;;;;;;;;;;;;;;;-144.99;68.70;52505.16;5025292;28;19973;-73
2023/01/05 12:16:24;;;;;;;;;;;;;;;-144.99;67.51;52550.00;5014481;28;19940;-73
2023/01/05 12:19:08;;;;;;;;;;;;;;;-144.99;65.54;52541.84;5033007;28;20367;-74
2023/01/05 12:21:37;;;;;;;;;;;;;;;-144.99;66.50;52521.47;5014853;28;20252;-73
2023/01/05 12:24:21;;;;;;;;;;;;;;;-144.99;67.63;52552.03;5025533;28;19929;-74
2023/01/05 12:26:57;;;;;;;;;;;;;;;-144.99;69.09;52560.19;5018069;28;19997;-72
2023/01/05 12:29:45;;;;;;;;;;;;;;;-144.99;71.21;52523.50;5031432;28;19964;-74
2023/01/05 12:32:21;;;;;;;;;;;;;;;-144.99;71.30;52574.47;5015204;28;19933;-74
2023/01/05 12:35:12;;;;;;;;;;;;;;;-144.99;72.15;52558.16;5031763;28;19933;-73
2023/01/05 12:37:46;;;;;;;;;;;;;;;-144.99;72.73;52523.50;5017698;28;20589;-73
2023/01/05 12:40:24;;;;;;;;;;;;;;;-144.99;72.86;52541.84;5039619;28;19990;-74
2023/01/05 12:42:58;;;;;;;;;;;;;;;-144.99;72.46;52552.03;5035422;28;19933;-73
2023/01/05 12:45:40;;;;;;;;;;;;;;;-144.99;72.32;52578.53;5017283;28;19933;-71
2023/01/05 12:48:10;;;;;;;;;;;;;;;-144.99;72.79;52558.16;5015379;28;20038;-73
2023/01/05 12:50:41;;;;;;;;;;;;;;;-144.99;72.74;52550.00;5032346;28;20215;-74
2023/01/05 12:53:15;;;;;;;;;;;;;;;-144.99;72.22;52570.38;5021520;28;19929;-74
2023/01/05 12:55:43;;;;;;;;;;;;;;;-144.99;72.35;52541.84;5013539;28;20336;-75
2023/01/05 12:58:13;;;;;;;;;;;;;;;-144.99;72.01;52541.84;5009117;28;19987;-75
2023/01/05 13:00:44;;;;;;;;;;;;;;;-144.99;72.89;52566.31;5027186;28;20103;-74
2023/01/05 13:03:15;;;;;;;;;;;;;;;-144.99;72.84;52580.59;5011785;28;20058;-74
2023/01/05 13:05:45;;;;;;;;;;;;;;;-144.99;72.92;52574.47;5024954;28;19990;-74
2023/01/05 13:08:16;;;;;;;;;;;;;;;-144.99;72.90;52527.59;5022704;28;20019;-74
2023/01/05 13:10:46;;;;;;;;;;;;;;;-144.99;72.43;52570.38;5038368;28;19965;-74